Waterloo Regional Airport
KALO : rendu visible

Aérodrome :











RETROUVEZ-NOUS SUR...

 
LOGIN :

S'inscrire | Disclaimer

   EN    FR    IT 

 









Légende :    VFR   VFR Marginal   IFR   IFR Intensif   IFR Très Intensif
Visi : 
Plafond : 
>= 8 km
>= 3000ft
5 à 8 km
1000 à 3000 ft
1500m à 5 km
500 à 1000 ft
800 à 1500m
200 à 500 ft
< 800m
< 200 ft
Symboles :   Orages  Brouillard  Fortes neiges  Fortes précipitations  Vent > 20 kt






- Altitude de l'aérodrome : 873 ft
- Code IATA : ALO


KALO - Waterloo Regional

DERNIER METAR :
  • 162354Z 12010KT 7SM CLR 03/M01 A3009 RMK AO2 SLP197 T00331006 10067 20033 56014

METARs EXPIRÉS :
  • 162254Z 13011KT 6SM HZ CLR 04/00 A3009 RMK AO2 SLP197 T00440000
  • 162154Z 14012G21KT 6SM HZ CLR 05/01 A3011 RMK AO2 SLP204 T00500006

TAF KALO
Valide du 17 à 00h jusqu'au 18 à 00h UTC


162336Z 1700/1724 14011KT 6SM HZ SCT200
FM170200 17007KT P6SM OVC150
FM171000 17005KT P6SM VCSH OVC029
FM171200 18004KT 4SM -SNRA OVC010
FM171400 25004KT P6SM OVC008
FM171700 32009KT P6SM OVC009



MET'MAP, la Météo Aéronautique d'un coup d'oeil ! - Copyright ORBIFLY Décembre 2007 - Disclaimer

ORBIFLY MET'MAP TEAM :

Programmation & Développement : Alexandra Zaïnal
Conception & Développement : Baudouin d'Aumeries
Co-Programmation & Développement : Marc-Olivier Méhu
Soutien technique & logistique : Manuel Goepfert

Contact : metmap@orbifly.com




SOURCES & CREDITS :

   NOAA       Earth
Advisory